createdAt,value
2019-01-11T00:02:03.517Z,2.23
2019-01-11T00:04:30.376Z,2.93
2019-01-11T00:06:57.221Z,2.50
2019-01-11T00:09:24.009Z,2.37
2019-01-11T00:11:51.137Z,3.00
2019-01-11T00:14:18.485Z,2.10
2019-01-11T00:16:45.368Z,1.90
2019-01-11T00:19:12.262Z,1.50
2019-01-11T00:21:39.384Z,2.63
2019-01-11T00:24:06.417Z,1.63
2019-01-11T00:26:33.410Z,1.70
2019-01-11T00:29:00.625Z,1.43
2019-01-11T00:31:27.446Z,2.53
2019-01-11T00:33:54.409Z,2.20
2019-01-11T00:36:21.623Z,2.37
2019-01-11T00:38:48.730Z,2.10
2019-01-11T00:41:15.582Z,2.93
2019-01-11T00:43:42.337Z,1.93
2019-01-11T00:46:09.501Z,1.63
2019-01-11T00:48:36.248Z,2.00
2019-01-11T00:51:03.540Z,3.37
2019-01-11T00:53:30.307Z,2.83
2019-01-11T00:55:57.177Z,1.83
2019-01-11T00:58:23.925Z,1.50
2019-01-11T01:00:50.830Z,1.77
2019-01-11T01:03:17.572Z,1.40
2019-01-11T01:05:44.416Z,1.20
2019-01-11T01:08:11.621Z,1.63
2019-01-11T01:10:39.724Z,1.40
2019-01-11T01:13:07.097Z,1.10
2019-01-11T01:15:33.873Z,1.20
2019-01-11T01:18:01.045Z,1.20
2019-01-11T01:20:28.138Z,2.20
2019-01-11T01:22:55.199Z,1.60
2019-01-11T01:25:22.432Z,2.40
2019-01-11T01:27:49.466Z,2.00
2019-01-11T01:30:17.027Z,0.80
2019-01-11T01:32:43.998Z,0.90
2019-01-11T01:35:10.958Z,1.10
2019-01-11T01:37:37.900Z,1.20
2019-01-11T01:40:05.727Z,1.13
2019-01-11T01:42:33.028Z,1.47
2019-01-11T01:44:59.905Z,1.13
2019-01-11T01:47:27.126Z,1.03
2019-01-11T01:49:54.153Z,2.33
2019-01-11T01:52:21.388Z,1.73
2019-01-11T01:54:48.274Z,1.10
2019-01-11T01:57:15.008Z,1.43
2019-01-11T01:59:42.022Z,1.07
2019-01-11T02:02:09.124Z,1.80
2019-01-11T02:04:36.143Z,1.40
2019-01-11T02:07:03.420Z,1.77
2019-01-11T02:09:30.484Z,1.33
2019-01-11T02:11:57.570Z,1.20
2019-01-11T02:14:24.452Z,1.30
2019-01-11T02:16:51.309Z,1.87
2019-01-11T02:19:18.328Z,2.00
2019-01-11T02:21:45.376Z,1.03
2019-01-11T02:24:12.156Z,1.10
2019-01-11T02:26:39.530Z,2.03
2019-01-11T02:29:06.383Z,2.60
2019-01-11T02:31:33.129Z,1.20
2019-01-11T02:34:00.034Z,0.90
2019-01-11T02:36:26.777Z,1.83
2019-01-11T02:39:14.695Z,1.67
2019-01-11T02:41:41.770Z,2.10
2019-01-11T02:44:08.809Z,1.10
2019-01-11T02:46:35.544Z,1.20
2019-01-11T02:49:02.390Z,1.30
2019-01-11T02:51:29.110Z,1.33
2019-01-11T02:53:55.872Z,1.20
2019-01-11T02:56:22.603Z,2.07
2019-01-11T02:58:49.329Z,1.20
2019-01-11T03:01:16.343Z,1.10
2019-01-11T03:03:43.065Z,1.80
2019-01-11T03:06:09.996Z,1.30
2019-01-11T03:08:36.938Z,1.30
2019-01-11T03:11:03.767Z,1.93
2019-01-11T03:13:30.500Z,1.73
2019-01-11T03:15:57.248Z,4.40
2019-01-11T03:18:23.976Z,2.30
2019-01-11T03:20:50.707Z,4.00
2019-01-11T03:23:17.437Z,3.67
2019-01-11T03:25:44.633Z,3.50
2019-01-11T03:28:11.374Z,5.30
2019-01-11T03:30:38.234Z,6.50
2019-01-11T03:33:05.051Z,7.23
2019-01-11T03:35:31.816Z,5.37
2019-01-11T03:37:58.541Z,4.53
2019-01-11T03:40:26.597Z,2.97
2019-01-11T03:42:53.491Z,2.23
2019-01-11T03:45:22.173Z,2.43
2019-01-11T03:47:49.000Z,2.43
2019-01-11T03:50:16.102Z,2.00
2019-01-11T03:52:42.952Z,1.50
2019-01-11T03:55:11.369Z,3.10
2019-01-11T03:57:38.221Z,2.13
2019-01-11T04:00:08.244Z,1.70
2019-01-11T04:02:35.092Z,2.43
2019-01-11T04:05:02.209Z,1.60
2019-01-11T04:07:28.972Z,1.80
2019-01-11T04:09:56.050Z,1.70
2019-01-11T04:12:23.002Z,2.80
2019-01-11T04:14:49.977Z,2.10
2019-01-11T04:17:16.785Z,2.10
2019-01-11T04:19:43.624Z,2.53
2019-01-11T04:22:30.143Z,2.17
2019-01-11T04:25:16.733Z,1.83
2019-01-11T04:27:43.580Z,2.80
2019-01-11T04:30:13.693Z,4.73
2019-01-11T04:32:40.585Z,3.10
2019-01-11T04:35:07.681Z,2.10
2019-01-11T04:37:34.787Z,1.90
2019-01-11T04:40:01.534Z,2.00
2019-01-11T04:42:28.362Z,1.83
2019-01-11T04:44:55.097Z,1.80
2019-01-11T04:47:23.441Z,2.17
2019-01-11T04:49:50.261Z,2.03
2019-01-11T04:52:16.992Z,3.33
2019-01-11T04:54:43.731Z,4.07
2019-01-11T04:57:10.492Z,2.47
2019-01-11T04:59:37.397Z,1.60
2019-01-11T05:02:04.320Z,1.70
2019-01-11T05:04:31.198Z,2.10
2019-01-11T05:06:57.929Z,1.80
2019-01-11T05:09:24.755Z,1.60
2019-01-11T05:11:51.740Z,4.60
2019-01-11T05:14:18.603Z,2.30
2019-01-11T05:16:45.590Z,2.00
2019-01-11T05:19:12.424Z,1.97
2019-01-11T05:21:39.268Z,2.23
2019-01-11T05:24:06.096Z,2.23
2019-01-11T05:26:32.968Z,3.17
2019-01-11T05:29:00.056Z,2.17
2019-01-11T05:31:26.796Z,2.20
2019-01-11T05:33:53.518Z,2.17
2019-01-11T05:36:20.381Z,4.83
2019-01-11T05:38:47.356Z,3.30
2019-01-11T05:41:14.409Z,2.30
2019-01-11T05:43:41.309Z,3.30
2019-01-11T05:46:08.168Z,2.57
2019-01-11T05:48:34.910Z,2.20
2019-01-11T05:51:01.636Z,2.57
2019-01-11T05:53:28.613Z,3.10
2019-01-11T05:55:56.591Z,2.93
2019-01-11T05:58:32.181Z,3.07
2019-01-11T06:00:59.149Z,4.17
2019-01-11T06:03:25.969Z,2.67
2019-01-11T06:05:52.901Z,2.87
2019-01-11T06:08:19.719Z,3.13
2019-01-11T06:10:46.544Z,2.80
2019-01-11T06:13:13.281Z,3.10
2019-01-11T06:15:40.232Z,2.97
2019-01-11T06:18:06.948Z,3.40
2019-01-11T06:20:33.781Z,3.37
2019-01-11T06:23:00.513Z,4.07
2019-01-11T06:25:27.389Z,3.10
2019-01-11T06:27:55.607Z,3.70
2019-01-11T06:30:22.456Z,3.13
2019-01-11T06:32:49.173Z,3.40
2019-01-11T06:35:16.305Z,3.40
2019-01-11T06:37:43.145Z,3.30
2019-01-11T06:40:10.620Z,3.73
2019-01-11T06:42:37.356Z,3.93
2019-01-11T06:45:05.517Z,3.27
2019-01-11T06:47:32.241Z,3.40
2019-01-11T06:49:59.102Z,3.83
2019-01-11T06:52:25.960Z,3.93
2019-01-11T06:54:52.704Z,4.40
2019-01-11T06:57:19.457Z,7.30
2019-01-11T06:59:46.290Z,3.50
2019-01-11T07:02:13.428Z,3.17
2019-01-11T07:04:40.404Z,3.80
2019-01-11T07:07:07.173Z,3.03
2019-01-11T07:09:35.299Z,3.60
2019-01-11T07:12:02.240Z,4.30
2019-01-11T07:14:28.965Z,4.40
2019-01-11T07:16:55.696Z,4.03
2019-01-11T07:19:22.555Z,4.00
2019-01-11T07:21:49.393Z,4.20
2019-01-11T07:24:16.129Z,4.13
2019-01-11T07:26:43.248Z,5.13
2019-01-11T07:29:09.960Z,3.77
2019-01-11T07:31:36.680Z,4.17
2019-01-11T07:34:03.617Z,6.93
2019-01-11T07:36:32.500Z,3.90
2019-01-11T07:38:59.257Z,5.40
2019-01-11T07:41:26.180Z,5.40
2019-01-11T07:43:53.164Z,4.73
2019-01-11T07:46:20.020Z,4.40
2019-01-11T07:48:47.037Z,4.70
2019-01-11T07:51:13.969Z,4.00
2019-01-11T07:53:40.701Z,4.90
2019-01-11T07:56:07.436Z,5.30
2019-01-11T07:58:34.167Z,4.90
2019-01-11T08:01:01.337Z,4.30
2019-01-11T08:03:28.090Z,6.93
2019-01-11T08:05:54.834Z,6.50
2019-01-11T08:08:21.785Z,5.40
2019-01-11T08:10:48.515Z,5.00
2019-01-11T08:13:15.256Z,5.20
2019-01-11T08:15:42.084Z,5.10
2019-01-11T08:18:08.820Z,5.37
2019-01-11T08:20:35.822Z,5.27
2019-01-11T08:23:02.919Z,5.13
2019-01-11T08:25:29.661Z,6.80
2019-01-11T08:27:56.513Z,6.87
2019-01-11T08:30:23.338Z,6.20
2019-01-11T08:32:50.065Z,7.47
2019-01-11T08:35:17.008Z,6.00
2019-01-11T08:37:44.760Z,6.80
2019-01-11T08:40:11.861Z,6.33
2019-01-11T08:42:38.605Z,6.47
2019-01-11T08:45:06.878Z,5.47
2019-01-11T08:47:33.592Z,6.60
2019-01-11T08:50:00.779Z,7.60
2019-01-11T08:52:27.602Z,8.00
2019-01-11T08:54:54.433Z,8.70
2019-01-11T08:57:21.246Z,7.70
2019-01-11T08:59:48.201Z,8.23
2019-01-11T09:02:14.923Z,8.17
2019-01-11T09:04:41.648Z,9.33
2019-01-11T09:07:08.845Z,11.00
2019-01-11T09:09:35.565Z,8.03
2019-01-11T09:12:02.856Z,7.60
2019-01-11T09:14:46.761Z,11.03
2019-01-11T09:17:14.112Z,8.23
2019-01-11T09:19:40.848Z,8.60
2019-01-11T09:22:08.033Z,8.60
2019-01-11T09:24:34.757Z,9.10
2019-01-11T09:27:01.484Z,8.50
2019-01-11T09:29:28.347Z,8.30
2019-01-11T09:31:55.076Z,9.63
2019-01-11T09:34:22.081Z,13.57
2019-01-11T09:36:48.937Z,8.63
2019-01-11T09:39:15.765Z,9.43
2019-01-11T09:41:42.499Z,10.23
2019-01-11T09:44:09.261Z,7.63
2019-01-11T09:46:36.173Z,9.77
2019-01-11T09:49:03.026Z,8.97
2019-01-11T09:51:29.964Z,9.27
2019-01-11T09:53:56.688Z,8.47
2019-01-11T09:56:23.516Z,9.60
2019-01-11T09:58:50.344Z,8.87
2019-01-11T10:01:17.269Z,10.87
2019-01-11T10:03:44.333Z,13.57
2019-01-11T10:06:11.281Z,9.87
2019-01-11T10:08:38.033Z,10.23
2019-01-11T10:11:04.858Z,12.73
2019-01-11T10:13:31.712Z,11.33
2019-01-11T10:15:58.445Z,12.77
2019-01-11T10:18:25.357Z,12.93
2019-01-11T10:20:52.353Z,9.90
2019-01-11T10:23:19.083Z,38.63
2019-01-11T10:25:45.837Z,21.37
2019-01-11T10:28:12.898Z,17.77
2019-01-11T10:30:39.740Z,23.73
2019-01-11T10:33:06.678Z,68.33
2019-01-11T10:35:33.516Z,59.67
2019-01-11T10:38:00.365Z,36.07
2019-01-11T10:40:27.188Z,14.87
2019-01-11T10:42:54.144Z,14.43
2019-01-11T10:45:21.792Z,15.67
2019-01-11T10:47:50.832Z,11.33
2019-01-11T10:50:17.662Z,10.23
2019-01-11T10:52:44.688Z,10.10
2019-01-11T10:55:12.601Z,9.57
2019-01-11T10:57:39.628Z,8.80
2019-01-11T11:00:16.305Z,18.80
2019-01-11T11:02:43.161Z,23.07
2019-01-11T11:05:10.095Z,13.37
2019-01-11T11:07:36.836Z,16.60
2019-01-11T11:10:04.412Z,11.37
2019-01-11T11:12:31.161Z,16.93
2019-01-11T11:14:58.248Z,12.57
2019-01-11T11:17:25.077Z,10.73
2019-01-11T11:19:52.149Z,10.33
2019-01-11T11:22:19.213Z,10.63
2019-01-11T11:24:46.044Z,9.17
2019-01-11T11:27:12.886Z,10.10
2019-01-11T11:29:39.630Z,11.47
2019-01-11T11:32:06.461Z,12.30
2019-01-11T11:34:34.032Z,11.30
2019-01-11T11:37:02.140Z,10.93
2019-01-11T11:39:28.969Z,12.03
2019-01-11T11:41:55.701Z,12.43
2019-01-11T11:44:22.428Z,10.40
2019-01-11T11:46:49.165Z,11.30
2019-01-11T11:49:15.898Z,9.50
2019-01-11T11:51:42.667Z,11.43
2019-01-11T11:54:09.613Z,9.97
2019-01-11T11:56:36.441Z,10.53
2019-01-11T11:59:03.632Z,11.33
2019-01-11T12:01:30.589Z,10.83
2019-01-11T12:03:57.424Z,11.67
2019-01-11T12:06:24.168Z,11.50
2019-01-11T12:08:51.069Z,11.63
2019-01-11T12:11:17.956Z,10.33
2019-01-11T12:13:44.728Z,10.33
2019-01-11T12:16:11.586Z,14.03
2019-01-11T12:18:38.297Z,12.07
2019-01-11T12:21:05.238Z,9.53
2019-01-11T12:23:32.422Z,11.30
2019-01-11T12:25:59.257Z,15.13
2019-01-11T12:28:25.977Z,13.90
2019-01-11T12:30:52.801Z,16.20
2019-01-11T12:33:19.685Z,20.50
2019-01-11T12:35:46.667Z,12.47
2019-01-11T12:38:13.914Z,10.70
2019-01-11T12:40:40.861Z,11.30
2019-01-11T12:43:07.713Z,10.10
2019-01-11T12:45:34.688Z,10.13
2019-01-11T12:48:01.533Z,10.10
2019-01-11T12:50:28.453Z,13.87
2019-01-11T12:52:55.266Z,12.03
2019-01-11T12:55:22.327Z,12.13
2019-01-11T12:57:49.297Z,11.73
2019-01-11T13:00:16.973Z,10.90
2019-01-11T13:02:43.944Z,10.37
2019-01-11T13:05:13.049Z,11.37
2019-01-11T13:07:39.912Z,12.97
2019-01-11T13:10:08.961Z,12.17
2019-01-11T13:12:35.724Z,11.00
2019-01-11T13:15:04.342Z,12.37
2019-01-11T13:17:31.105Z,11.57
2019-01-11T13:19:57.822Z,12.03
2019-01-11T13:22:24.604Z,16.03
2019-01-11T13:24:51.520Z,13.87
2019-01-11T13:27:18.276Z,16.37
2019-01-11T13:29:45.294Z,11.80
2019-01-11T13:32:12.117Z,13.67
2019-01-11T13:34:38.868Z,13.63
2019-01-11T13:37:05.753Z,13.87
2019-01-11T13:39:32.489Z,14.40
2019-01-11T13:41:59.650Z,10.93
2019-01-11T13:44:26.485Z,14.80
2019-01-11T13:46:53.312Z,12.67
2019-01-11T13:49:20.065Z,15.30
2019-01-11T13:51:46.803Z,12.23
2019-01-11T13:54:13.524Z,12.63
2019-01-11T13:56:40.258Z,14.80
2019-01-11T13:59:07.115Z,12.83
2019-01-11T14:01:33.856Z,14.20
2019-01-11T14:04:00.600Z,15.67
2019-01-11T14:06:27.682Z,12.97
2019-01-11T14:08:54.413Z,11.87
2019-01-11T14:11:21.228Z,12.27
2019-01-11T14:13:48.164Z,11.00
2019-01-11T14:16:15.149Z,12.43
2019-01-11T14:18:42.060Z,11.27
2019-01-11T14:21:08.786Z,10.07
2019-01-11T14:23:35.527Z,12.43
2019-01-11T14:26:02.603Z,9.83
2019-01-11T14:28:29.425Z,12.57
2019-01-11T14:30:56.260Z,10.63
2019-01-11T14:33:23.022Z,11.40
2019-01-11T14:35:49.782Z,11.20
2019-01-11T14:38:16.709Z,11.33
2019-01-11T14:40:43.558Z,10.50
2019-01-11T14:43:10.287Z,10.30
2019-01-11T14:45:37.125Z,9.47
2019-01-11T14:48:04.053Z,11.17
2019-01-11T14:50:30.903Z,12.07
2019-01-11T14:52:57.612Z,12.40
2019-01-11T14:55:24.466Z,12.47
2019-01-11T14:57:51.213Z,13.33
2019-01-11T15:00:19.922Z,11.83
2019-01-11T15:02:46.845Z,12.77
2019-01-11T15:05:14.096Z,10.60
2019-01-11T15:07:40.950Z,12.53
2019-01-11T15:10:09.445Z,11.50
2019-01-11T15:12:36.401Z,14.30
2019-01-11T15:15:04.233Z,12.37
2019-01-11T15:17:31.225Z,13.77
2019-01-11T15:19:58.008Z,11.43
2019-01-11T15:22:26.718Z,12.63
2019-01-11T15:24:53.380Z,23.40
2019-01-11T15:27:20.160Z,12.13
2019-01-11T15:29:46.986Z,12.03
2019-01-11T15:32:13.842Z,12.30
2019-01-11T15:34:40.598Z,12.53
2019-01-11T15:37:07.419Z,12.30
2019-01-11T15:39:34.383Z,11.87
2019-01-11T15:42:01.163Z,11.97
2019-01-11T15:44:27.889Z,11.70
2019-01-11T15:46:54.828Z,11.33
2019-01-11T15:49:21.545Z,9.93
2019-01-11T15:51:48.289Z,11.83
2019-01-11T15:54:15.006Z,12.57
2019-01-11T15:56:41.853Z,12.23
2019-01-11T15:59:08.672Z,12.40
2019-01-11T16:01:35.605Z,15.23
2019-01-11T16:04:05.528Z,12.83
2019-01-11T16:06:37.235Z,12.93
2019-01-11T16:09:13.777Z,13.00
2019-01-11T16:11:44.393Z,12.43
2019-01-11T16:14:38.785Z,14.30
2019-01-11T16:17:09.090Z,16.53
2019-01-11T16:19:36.181Z,15.60
2019-01-11T16:22:03.793Z,16.13
2019-01-11T16:24:30.620Z,16.57
2019-01-11T16:26:57.441Z,12.50
2019-01-11T16:29:24.532Z,16.20
2019-01-11T16:31:51.274Z,14.47
2019-01-11T16:34:18.006Z,15.00
2019-01-11T16:36:44.713Z,13.57
2019-01-11T16:39:11.723Z,14.17
2019-01-11T16:41:38.813Z,14.00
2019-01-11T16:44:05.932Z,14.33
2019-01-11T16:46:32.788Z,13.17
2019-01-11T16:48:59.529Z,13.10
2019-01-11T16:51:26.481Z,11.87
2019-01-11T16:53:53.225Z,12.70
2019-01-11T16:56:20.117Z,10.60
2019-01-11T16:58:47.158Z,12.53
2019-01-11T17:01:15.191Z,12.83
2019-01-11T17:03:42.108Z,11.93
2019-01-11T17:06:09.017Z,11.03
2019-01-11T17:08:35.753Z,13.27
2019-01-11T17:11:02.814Z,15.87
2019-01-11T17:13:29.569Z,46.33
2019-01-11T17:15:56.337Z,13.77
2019-01-11T17:18:23.081Z,18.73
2019-01-11T17:20:50.369Z,13.23
2019-01-11T17:23:17.485Z,12.43
2019-01-11T17:25:44.391Z,12.70
2019-01-11T17:28:11.235Z,14.37
2019-01-11T17:30:38.121Z,12.83
2019-01-11T17:33:05.402Z,23.47
2019-01-11T17:35:32.494Z,13.20
2019-01-11T17:38:00.532Z,11.30
2019-01-11T17:40:27.698Z,10.73
2019-01-11T17:42:54.683Z,11.47
2019-01-11T17:45:22.113Z,10.70
2019-01-11T17:47:49.382Z,12.87
2019-01-11T17:50:17.132Z,10.87
2019-01-11T17:52:44.332Z,14.23
2019-01-11T17:55:11.546Z,12.73
2019-01-11T17:57:38.315Z,23.03
2019-01-11T18:00:08.662Z,33.10
2019-01-11T18:02:35.571Z,28.10
2019-01-11T18:05:03.219Z,12.53
2019-01-11T18:07:30.025Z,11.60
2019-01-11T18:09:56.877Z,12.53
2019-01-11T18:12:23.947Z,11.90
2019-01-11T18:14:50.814Z,11.23
2019-01-11T18:17:17.762Z,13.87
2019-01-11T18:19:44.994Z,14.60
2019-01-11T18:22:11.806Z,13.87
2019-01-11T18:24:38.702Z,12.57
2019-01-11T18:27:05.737Z,13.50
2019-01-11T18:29:32.507Z,13.07
2019-01-11T18:31:59.419Z,13.50
2019-01-11T18:34:26.707Z,12.67
2019-01-11T18:36:53.937Z,11.47
2019-01-11T18:39:20.694Z,12.80
2019-01-11T18:41:47.449Z,11.57
2019-01-11T18:44:14.788Z,11.17
2019-01-11T18:46:41.718Z,12.23
2019-01-11T18:49:08.587Z,12.03
2019-01-11T18:51:36.059Z,11.30
2019-01-11T18:54:03.242Z,10.37
2019-01-11T18:56:30.093Z,9.00
2019-01-11T18:58:56.995Z,10.93
2019-01-11T19:01:23.782Z,12.00
2019-01-11T19:03:50.889Z,11.50
2019-01-11T19:06:17.764Z,9.73
2019-01-11T19:08:44.750Z,10.23
2019-01-11T19:11:11.937Z,12.23
2019-01-11T19:13:39.179Z,10.37
2019-01-11T19:16:06.147Z,9.63
2019-01-11T19:18:33.078Z,9.70
2019-01-11T19:21:01.566Z,9.17
2019-01-11T19:23:28.325Z,10.57
2019-01-11T19:25:55.620Z,9.07
2019-01-11T19:28:22.393Z,9.00
2019-01-11T19:30:49.254Z,9.63
2019-01-11T19:33:16.494Z,9.57
2019-01-11T19:35:43.444Z,10.10
2019-01-11T19:38:10.273Z,10.27
2019-01-11T19:40:37.010Z,8.47
2019-01-11T19:43:03.893Z,8.20
2019-01-11T19:45:31.124Z,9.37
2019-01-11T19:47:58.533Z,8.30
2019-01-11T19:50:25.794Z,14.73
2019-01-11T19:52:53.011Z,10.30
2019-01-11T19:55:20.076Z,10.37
2019-01-11T19:57:47.310Z,10.10
2019-01-11T20:00:16.881Z,12.17
2019-01-11T20:02:44.118Z,10.07
2019-01-11T20:05:11.271Z,10.97
2019-01-11T20:07:38.580Z,10.40
2019-01-11T20:10:07.023Z,11.40
2019-01-11T20:12:34.144Z,24.07
2019-01-11T20:15:01.235Z,11.53
2019-01-11T20:17:29.386Z,20.97
2019-01-11T20:19:56.344Z,10.83
2019-01-11T20:22:23.515Z,10.60
2019-01-11T20:24:52.313Z,11.60
2019-01-11T20:27:19.582Z,11.23
2019-01-11T20:29:46.469Z,9.20
2019-01-11T20:32:13.377Z,10.60
2019-01-11T20:34:40.231Z,10.80
2019-01-11T20:37:14.922Z,13.10
2019-01-11T20:39:41.860Z,12.60
2019-01-11T20:42:09.050Z,11.70
2019-01-11T20:44:36.223Z,12.60
2019-01-11T20:47:03.487Z,9.80
2019-01-11T20:49:30.555Z,10.83
2019-01-11T20:51:57.309Z,10.90
2019-01-11T20:54:24.345Z,11.83
2019-01-11T20:56:51.193Z,8.13
2019-01-11T20:59:18.233Z,8.07
2019-01-11T21:01:45.330Z,7.83
2019-01-11T21:04:12.532Z,8.63
2019-01-11T21:06:39.405Z,7.83
2019-01-11T21:09:07.187Z,7.00
2019-01-11T21:11:34.105Z,7.87
2019-01-11T21:14:00.972Z,6.67
2019-01-11T21:16:28.109Z,8.07
2019-01-11T21:18:55.353Z,7.70
2019-01-11T21:21:22.443Z,7.87
2019-01-11T21:23:49.224Z,8.70
2019-01-11T21:26:16.061Z,37.17
2019-01-11T21:28:43.138Z,8.90
2019-01-11T21:31:09.972Z,7.73
2019-01-11T21:33:37.345Z,7.40
2019-01-11T21:36:04.185Z,6.90
2019-01-11T21:38:31.215Z,7.63
2019-01-11T21:40:58.082Z,5.03
2019-01-11T21:43:25.074Z,6.40
2019-01-11T21:45:51.942Z,7.03
2019-01-11T21:48:18.745Z,6.23
2019-01-11T21:50:45.813Z,5.60
2019-01-11T21:53:12.934Z,6.40
2019-01-11T21:55:40.236Z,9.27
2019-01-11T21:58:07.458Z,6.57
2019-01-11T22:00:44.478Z,7.40
2019-01-11T22:03:16.433Z,7.37
2019-01-11T22:05:43.284Z,7.23
2019-01-11T22:08:10.243Z,6.80
2019-01-11T22:10:37.201Z,7.23
2019-01-11T22:13:04.116Z,8.20
2019-01-11T22:15:31.250Z,8.40
2019-01-11T22:17:58.088Z,7.47
2019-01-11T22:20:24.845Z,8.57
2019-01-11T22:22:51.620Z,8.57
2019-01-11T22:25:18.417Z,7.97
2019-01-11T22:27:45.599Z,7.53
2019-01-11T22:30:14.856Z,6.83
2019-01-11T22:32:41.570Z,8.70
2019-01-11T22:35:08.773Z,8.10
2019-01-11T22:37:35.909Z,8.90
2019-01-11T22:40:03.700Z,8.77
2019-01-11T22:42:30.430Z,7.30
2019-01-11T22:44:57.166Z,6.63
2019-01-11T22:47:23.895Z,8.00
2019-01-11T22:49:50.867Z,8.37
2019-01-11T22:52:17.689Z,4.63
2019-01-11T22:54:44.449Z,6.87
2019-01-11T22:57:11.470Z,6.20
2019-01-11T22:59:38.356Z,7.37
2019-01-11T23:02:17.377Z,7.67
2019-01-11T23:04:44.304Z,6.50
2019-01-11T23:07:54.150Z,7.23
2019-01-11T23:10:44.165Z,6.87
2019-01-11T23:13:13.620Z,6.63
2019-01-11T23:15:43.762Z,6.93
2019-01-11T23:18:15.957Z,6.47
2019-01-11T23:20:43.196Z,7.53
2019-01-11T23:23:09.968Z,7.77
2019-01-11T23:25:36.805Z,6.87
2019-01-11T23:28:03.865Z,7.20
2019-01-11T23:30:30.757Z,6.87
2019-01-11T23:32:57.649Z,7.67
2019-01-11T23:35:24.378Z,7.87
2019-01-11T23:37:51.129Z,6.70
2019-01-11T23:40:18.479Z,7.97
2019-01-11T23:42:45.327Z,7.23
2019-01-11T23:45:12.317Z,7.90
2019-01-11T23:47:39.061Z,6.47
2019-01-11T23:50:08.651Z,7.40
2019-01-11T23:52:35.393Z,7.33
2019-01-11T23:55:02.645Z,7.73
2019-01-11T23:57:29.545Z,7.87
2019-01-11T23:59:56.313Z,9.40
